Time;durP1;ratioP1;P1;durP2;ratioP2;P2;SDS_P1;SDS_P2;PMS_P1;PMS_P2;Temp;Humidity;BMP_temperature;BMP_pressure;BME280_temperature;BME280_humidity;BME280_pressure;Samples;Min_cycle;Max_cycle;Signal;HPM_P1;HPM_P2
2022/10/31 00:01:17;;;;;;;;;9.00;7.33;;;;;;;;5090723;27;45244;-78
2022/10/31 00:03:42;;;;;;;;;11.33;11.00;;;;;;;;5092359;27;45166;-78
2022/10/31 00:06:07;;;;;;;;;10.33;8.33;;;;;;;;5098823;27;46287;-78
2022/10/31 00:08:33;;;;;;;;;14.00;11.67;;;;;;;;5094614;27;45237;-79
2022/10/31 00:10:58;;;;;;;;;11.33;11.33;;;;;;;;5094244;27;45201;-79
2022/10/31 00:13:23;;;;;;;;;10.00;8.67;;;;;;;;5077162;27;45468;-79
2022/10/31 00:15:48;;;;;;;;;15.33;11.33;;;;;;;;5096133;27;45425;-79
2022/10/31 00:18:13;;;;;;;;;12.67;9.67;;;;;;;;5078742;27;45256;-79
2022/10/31 00:20:39;;;;;;;;;11.33;10.67;;;;;;;;5082075;27;45156;-79
2022/10/31 00:23:04;;;;;;;;;15.00;13.00;;;;;;;;5091659;27;45489;-79
2022/10/31 00:25:38;;;;;;;;;14.00;12.00;;;;;;;;5096713;27;46112;-79
2022/10/31 00:28:04;;;;;;;;;9.33;8.33;;;;;;;;5094723;27;45182;-79
2022/10/31 00:30:30;;;;;;;;;10.00;10.00;;;;;;;;5081310;27;45395;-79
2022/10/31 00:32:55;;;;;;;;;8.33;8.33;;;;;;;;5067562;27;46357;-79
2022/10/31 00:35:20;;;;;;;;;14.33;12.00;;;;;;;;5076193;27;46566;-79
2022/10/31 00:37:45;;;;;;;;;13.67;12.33;;;;;;;;5086236;27;45335;-79
2022/10/31 00:40:11;;;;;;;;;4.00;4.00;;;;;;;;5080889;27;45627;-79
2022/10/31 00:42:36;;;;;;;;;12.33;11.00;;;;;;;;5090035;27;45375;-79
2022/10/31 00:45:01;;;;;;;;;10.00;7.33;;;;;;;;5090603;27;45596;-78
2022/10/31 00:47:26;;;;;;;;;13.00;11.75;;;;;;;;5088100;27;45314;-79
2022/10/31 00:49:51;;;;;;;;;9.67;9.67;;;;;;;;5096816;27;45413;-79
2022/10/31 00:52:17;;;;;;;;;14.00;11.67;;;;;;;;5087353;27;45378;-79
2022/10/31 00:54:42;;;;;;;;;14.00;12.00;;;;;;;;5097171;27;45357;-79
2022/10/31 00:57:07;;;;;;;;;12.00;12.00;;;;;;;;5086637;27;45225;-79
2022/10/31 00:59:32;;;;;;;;;12.00;12.00;;;;;;;;5093752;27;45482;-79
2022/10/31 01:01:57;;;;;;;;;13.67;13.33;;;;;;;;5082898;27;47049;-78
2022/10/31 01:04:23;;;;;;;;;14.00;12.50;;;;;;;;5100459;27;46504;-78
2022/10/31 01:06:48;;;;;;;;;12.67;10.00;;;;;;;;5098014;27;45441;-78
2022/10/31 01:09:13;;;;;;;;;15.00;12.00;;;;;;;;5090702;27;45421;-78
2022/10/31 01:11:38;;;;;;;;;13.50;13.00;;;;;;;;5069557;27;45954;-78
2022/10/31 01:14:04;;;;;;;;;14.25;12.75;;;;;;;;5072011;27;46785;-78
2022/10/31 01:16:31;;;;;;;;;13.50;11.50;;;;;;;;5091606;27;45324;-78
2022/10/31 01:18:57;;;;;;;;;12.75;12.00;;;;;;;;5094591;27;45417;-78
2022/10/31 01:21:23;;;;;;;;;13.50;13.00;;;;;;;;5071204;27;45614;-78
2022/10/31 01:23:49;;;;;;;;;14.00;13.50;;;;;;;;5095458;27;46536;-78
2022/10/31 01:26:15;;;;;;;;;12.00;12.00;;;;;;;;5091981;27;45214;-78
2022/10/31 01:28:48;;;;;;;;;14.25;12.50;;;;;;;;5082038;27;45362;-78
2022/10/31 01:31:15;;;;;;;;;19.75;16.25;;;;;;;;5072680;27;45311;-78
2022/10/31 01:33:40;;;;;;;;;14.25;13.75;;;;;;;;5081823;27;48051;-78
2022/10/31 01:36:15;;;;;;;;;16.75;16.75;;;;;;;;5097416;27;45448;-78
2022/10/31 01:38:40;;;;;;;;;12.67;12.00;;;;;;;;5071724;27;45394;-79
2022/10/31 01:41:05;;;;;;;;;24.50;17.25;;;;;;;;5088330;27;45538;-78
2022/10/31 01:43:43;;;;;;;;;21.25;18.25;;;;;;;;5088964;27;45712;-78
2022/10/31 01:46:09;;;;;;;;;19.00;17.25;;;;;;;;5089219;27;45319;-78
2022/10/31 01:48:34;;;;;;;;;25.75;22.50;;;;;;;;5091683;27;45218;-78
2022/10/31 01:51:00;;;;;;;;;24.25;21.00;;;;;;;;5090499;27;45419;-78
2022/10/31 01:53:25;;;;;;;;;27.25;23.50;;;;;;;;5079376;27;47185;-78
2022/10/31 01:55:50;;;;;;;;;25.00;24.50;;;;;;;;5088598;27;45262;-78
2022/10/31 01:58:21;;;;;;;;;28.00;24.25;;;;;;;;5078691;27;45267;-78
2022/10/31 02:00:50;;;;;;;;;30.75;27.75;;;;;;;;5088236;27;45486;-78
2022/10/31 02:03:16;;;;;;;;;26.50;25.00;;;;;;;;5097859;27;46308;-78
2022/10/31 02:05:42;;;;;;;;;27.00;26.50;;;;;;;;5099417;27;45279;-78
2022/10/31 02:08:17;;;;;;;;;28.25;26.50;;;;;;;;5099974;27;45217;-78
2022/10/31 02:10:43;;;;;;;;;31.75;26.50;;;;;;;;5099299;27;45437;-78
2022/10/31 02:13:09;;;;;;;;;29.50;26.50;;;;;;;;5091413;27;46243;-78
2022/10/31 02:15:35;;;;;;;;;22.25;21.25;;;;;;;;5096445;27;45271;-79
2022/10/31 02:18:00;;;;;;;;;26.50;24.75;;;;;;;;5097855;27;45362;-78
2022/10/31 02:20:31;;;;;;;;;25.00;22.00;;;;;;;;5098666;27;45491;-78
2022/10/31 02:23:15;;;;;;;;;20.25;18.50;;;;;;;;5098205;27;45504;-79
2022/10/31 02:25:40;;;;;;;;;29.75;21.75;;;;;;;;5093593;27;45485;-78
2022/10/31 02:28:11;;;;;;;;;24.50;21.50;;;;;;;;5085353;27;45402;-78
2022/10/31 02:30:39;;;;;;;;;16.75;16.75;;;;;;;;5096401;27;45412;-78
2022/10/31 02:33:23;;;;;;;;;29.50;24.25;;;;;;;;5068610;27;45638;-78
2022/10/31 02:35:53;;;;;;;;;26.50;24.50;;;;;;;;5095588;27;45275;-78
2022/10/31 02:38:21;;;;;;;;;26.00;25.00;;;;;;;;5086754;27;45397;-78
2022/10/31 02:40:58;;;;;;;;;34.00;29.50;;;;;;;;5092340;27;45328;-78
2022/10/31 02:43:32;;;;;;;;;32.00;30.00;;;;;;;;5087031;27;45499;-78
2022/10/31 02:46:16;;;;;;;;;32.50;31.25;;;;;;;;5095246;27;45291;-78
2022/10/31 02:48:44;;;;;;;;;33.00;29.00;;;;;;;;5096883;27;45485;-78
2022/10/31 02:51:11;;;;;;;;;33.00;29.00;;;;;;;;5096603;27;45308;-78
2022/10/31 02:53:37;;;;;;;;;33.00;28.00;;;;;;;;5094047;27;45516;-78
2022/10/31 02:56:08;;;;;;;;;30.25;26.50;;;;;;;;5096183;27;45292;-78
2022/10/31 02:58:37;;;;;;;;;26.25;25.50;;;;;;;;5092893;27;45386;-79
2022/10/31 03:01:14;;;;;;;;;26.50;26.25;;;;;;;;5091750;27;45587;-78
2022/10/31 03:03:42;;;;;;;;;33.75;28.25;;;;;;;;5085667;27;45221;-78
2022/10/31 03:06:17;;;;;;;;;27.00;24.75;;;;;;;;5093438;27;45461;-79
2022/10/31 03:08:42;;;;;;;;;31.25;25.75;;;;;;;;5097591;27;45457;-79
2022/10/31 03:11:09;;;;;;;;;24.25;24.25;;;;;;;;5096106;27;45300;-79
2022/10/31 03:13:49;;;;;;;;;32.75;28.25;;;;;;;;5092502;27;45477;-78
2022/10/31 03:16:15;;;;;;;;;27.25;25.25;;;;;;;;5090480;27;45224;-79
2022/10/31 03:18:53;;;;;;;;;31.00;28.75;;;;;;;;5097252;27;45446;-78
2022/10/31 03:21:42;;;;;;;;;33.00;30.00;;;;;;;;5092526;27;45485;-79
2022/10/31 03:24:08;;;;;;;;;31.50;29.75;;;;;;;;5084485;27;45447;-78
2022/10/31 03:26:36;;;;;;;;;37.25;27.00;;;;;;;;5100797;27;45583;-78
2022/10/31 03:29:03;;;;;;;;;33.00;31.50;;;;;;;;5101428;27;45296;-78
2022/10/31 03:31:32;;;;;;;;;35.75;30.50;;;;;;;;5096998;27;45490;-78
2022/10/31 03:33:58;;;;;;;;;32.00;28.75;;;;;;;;5092032;27;45344;-78
2022/10/31 03:36:25;;;;;;;;;35.75;32.75;;;;;;;;5091507;27;45307;-78
2022/10/31 03:38:51;;;;;;;;;32.50;31.00;;;;;;;;5093304;27;45434;-78
2022/10/31 03:41:18;;;;;;;;;38.00;31.00;;;;;;;;5088471;27;45335;-78
2022/10/31 03:43:48;;;;;;;;;35.50;31.50;;;;;;;;5075485;27;47292;-78
2022/10/31 03:46:13;;;;;;;;;43.75;33.25;;;;;;;;5092215;27;45194;-78
2022/10/31 03:48:39;;;;;;;;;34.75;31.00;;;;;;;;5094196;27;45565;-79
2022/10/31 03:51:14;;;;;;;;;35.25;31.25;;;;;;;;5083675;27;45316;-79
2022/10/31 03:53:43;;;;;;;;;32.50;30.00;;;;;;;;5098080;27;46421;-79
2022/10/31 03:56:16;;;;;;;;;41.50;32.25;;;;;;;;5090513;27;45406;-79
2022/10/31 03:58:45;;;;;;;;;34.75;28.25;;;;;;;;5077748;27;45378;-78
2022/10/31 04:01:13;;;;;;;;;35.25;31.00;;;;;;;;5096929;27;45533;-78
2022/10/31 04:03:38;;;;;;;;;32.00;31.50;;;;;;;;5092191;27;46311;-79
2022/10/31 04:06:08;;;;;;;;;33.00;30.25;;;;;;;;5088025;27;45308;-78
2022/10/31 04:08:38;;;;;;;;;33.25;31.50;;;;;;;;5097369;27;45263;-79
2022/10/31 04:11:04;;;;;;;;;33.25;30.00;;;;;;;;5092883;27;45470;-79
2022/10/31 04:13:33;;;;;;;;;34.50;30.50;;;;;;;;5093131;27;45204;-79
2022/10/31 04:15:59;;;;;;;;;30.75;28.25;;;;;;;;5096064;27;45437;-79
2022/10/31 04:18:24;;;;;;;;;28.75;28.00;;;;;;;;5078381;27;45342;-79
2022/10/31 04:20:59;;;;;;;;;31.25;28.50;;;;;;;;5098975;27;45594;-79
2022/10/31 04:23:25;;;;;;;;;31.25;30.25;;;;;;;;5068101;27;47362;-79
2022/10/31 04:25:50;;;;;;;;;36.00;31.00;;;;;;;;5101210;27;45403;-79
2022/10/31 04:28:15;;;;;;;;;33.75;31.00;;;;;;;;5088357;27;45403;-79
2022/10/31 04:30:40;;;;;;;;;32.25;29.00;;;;;;;;5096271;27;45375;-78
2022/10/31 04:33:05;;;;;;;;;32.00;27.75;;;;;;;;5070429;27;46803;-78
2022/10/31 04:35:31;;;;;;;;;23.75;19.50;;;;;;;;5082821;27;45362;-79
2022/10/31 04:37:56;;;;;;;;;29.00;26.75;;;;;;;;5092542;27;45229;-79
2022/10/31 04:40:21;;;;;;;;;31.75;29.75;;;;;;;;5093399;27;45513;-78
2022/10/31 04:42:46;;;;;;;;;31.75;31.50;;;;;;;;5088171;27;46184;-79
2022/10/31 04:45:12;;;;;;;;;30.50;26.75;;;;;;;;5098405;27;45275;-79
2022/10/31 04:47:37;;;;;;;;;31.75;29.25;;;;;;;;5088012;27;45298;-78
2022/10/31 04:50:02;;;;;;;;;34.50;31.25;;;;;;;;5077367;27;46583;-78
2022/10/31 04:52:27;;;;;;;;;33.25;30.25;;;;;;;;5087767;27;45158;-78
2022/10/31 04:54:53;;;;;;;;;33.75;28.00;;;;;;;;5076875;28;45401;-78
2022/10/31 04:57:18;;;;;;;;;42.75;32.25;;;;;;;;5098056;27;45228;-78
2022/10/31 04:59:43;;;;;;;;;39.50;33.25;;;;;;;;5098256;27;45426;-78
2022/10/31 05:02:08;;;;;;;;;37.75;33.00;;;;;;;;5088306;27;45551;-78
2022/10/31 05:04:33;;;;;;;;;36.75;33.50;;;;;;;;5092669;27;45185;-79
2022/10/31 05:06:59;;;;;;;;;32.25;30.25;;;;;;;;5091720;27;45209;-78
2022/10/31 05:09:24;;;;;;;;;39.75;32.00;;;;;;;;5091686;27;45343;-78
2022/10/31 05:11:49;;;;;;;;;32.75;30.75;;;;;;;;5078291;27;46777;-78
2022/10/31 05:14:14;;;;;;;;;35.50;32.00;;;;;;;;5094940;27;45336;-79
2022/10/31 05:16:39;;;;;;;;;33.00;29.75;;;;;;;;5093627;27;45255;-78
2022/10/31 05:19:04;;;;;;;;;34.75;32.25;;;;;;;;5096467;27;45202;-78
2022/10/31 05:21:30;;;;;;;;;38.25;32.00;;;;;;;;5095542;27;45306;-78
2022/10/31 05:23:55;;;;;;;;;40.00;35.00;;;;;;;;5099948;27;45377;-78
2022/10/31 05:26:20;;;;;;;;;37.00;33.00;;;;;;;;5096791;27;45179;-78
2022/10/31 05:28:45;;;;;;;;;34.75;31.00;;;;;;;;5099493;27;45154;-79
2022/10/31 05:31:10;;;;;;;;;32.50;29.00;;;;;;;;5098083;27;45272;-79
2022/10/31 05:33:36;;;;;;;;;33.50;29.25;;;;;;;;5086867;27;45578;-78
2022/10/31 05:36:01;;;;;;;;;36.00;31.25;;;;;;;;5093346;27;45446;-78
2022/10/31 05:38:26;;;;;;;;;25.00;21.00;;;;;;;;5070166;27;45940;-78
2022/10/31 05:40:54;;;;;;;;;32.50;28.75;;;;;;;;5090776;27;45323;-79
2022/10/31 05:43:19;;;;;;;;;31.25;30.25;;;;;;;;5088084;27;45354;-78
2022/10/31 05:45:44;;;;;;;;;24.75;21.25;;;;;;;;5094766;27;45371;-79
2022/10/31 05:48:09;;;;;;;;;28.75;26.75;;;;;;;;5087977;27;45449;-79
2022/10/31 05:50:34;;;;;;;;;28.50;27.00;;;;;;;;5095789;27;45315;-80
2022/10/31 05:53:00;;;;;;;;;26.00;22.25;;;;;;;;5086762;27;45614;-80
2022/10/31 05:55:26;;;;;;;;;25.25;23.50;;;;;;;;5096693;27;45430;-80
2022/10/31 05:57:52;;;;;;;;;26.75;25.25;;;;;;;;5091895;27;45527;-79
2022/10/31 06:00:18;;;;;;;;;23.75;23.50;;;;;;;;5091103;27;45351;-79
2022/10/31 06:02:43;;;;;;;;;28.25;27.00;;;;;;;;5074057;27;45430;-79
2022/10/31 06:05:08;;;;;;;;;28.50;25.75;;;;;;;;5080721;27;45409;-79
2022/10/31 06:07:34;;;;;;;;;28.25;24.50;;;;;;;;5094183;27;45465;-79
2022/10/31 06:09:59;;;;;;;;;29.25;23.25;;;;;;;;5076583;27;47627;-78
2022/10/31 06:12:24;;;;;;;;;29.00;27.00;;;;;;;;5099477;27;45494;-79
2022/10/31 06:14:49;;;;;;;;;26.67;22.33;;;;;;;;5091201;27;45255;-79
2022/10/31 06:17:14;;;;;;;;;29.00;25.75;;;;;;;;5096192;27;45431;-80
2022/10/31 06:19:40;;;;;;;;;21.67;19.00;;;;;;;;5074658;27;45463;-80
2022/10/31 06:22:05;;;;;;;;;29.50;23.50;;;;;;;;5098143;27;45287;-79
2022/10/31 06:24:30;;;;;;;;;30.50;26.00;;;;;;;;5096248;27;45205;-80
2022/10/31 06:26:55;;;;;;;;;25.25;23.50;;;;;;;;5099803;27;45510;-79
2022/10/31 06:29:20;;;;;;;;;26.00;23.50;;;;;;;;5080377;27;47999;-79
2022/10/31 06:31:46;;;;;;;;;32.00;24.50;;;;;;;;5088036;27;45481;-78
2022/10/31 06:34:11;;;;;;;;;27.00;25.00;;;;;;;;5092881;27;45325;-79
2022/10/31 06:36:36;;;;;;;;;21.50;21.00;;;;;;;;5090862;27;45485;-79
2022/10/31 06:39:01;;;;;;;;;24.25;22.50;;;;;;;;5095449;27;46091;-79
2022/10/31 06:41:27;;;;;;;;;24.25;23.25;;;;;;;;5092712;27;45331;-79
2022/10/31 06:43:52;;;;;;;;;23.00;21.50;;;;;;;;5096334;27;45303;-79
2022/10/31 06:46:17;;;;;;;;;26.25;24.50;;;;;;;;5093531;27;45399;-79
2022/10/31 06:48:42;;;;;;;;;27.75;22.75;;;;;;;;5098935;27;46061;-79
2022/10/31 06:51:07;;;;;;;;;23.50;22.50;;;;;;;;5085153;27;45265;-80
2022/10/31 06:53:33;;;;;;;;;23.33;19.33;;;;;;;;5088297;27;45291;-80
2022/10/31 06:55:58;;;;;;;;;21.67;21.67;;;;;;;;5086087;27;45649;-80
2022/10/31 06:58:23;;;;;;;;;23.67;22.00;;;;;;;;5089149;27;46290;-79
2022/10/31 07:00:49;;;;;;;;;30.25;23.00;;;;;;;;5087325;27;45261;-80
2022/10/31 07:03:15;;;;;;;;;22.75;21.75;;;;;;;;5091550;27;45312;-79
2022/10/31 07:05:40;;;;;;;;;27.50;22.25;;;;;;;;5092495;27;45424;-79
2022/10/31 07:08:08;;;;;;;;;22.67;22.33;;;;;;;;5072621;27;47522;-79
2022/10/31 07:10:34;;;;;;;;;25.00;22.00;;;;;;;;5092105;27;45340;-79
2022/10/31 07:13:01;;;;;;;;;26.50;23.75;;;;;;;;5084779;27;45241;-80
2022/10/31 07:15:27;;;;;;;;;25.00;23.25;;;;;;;;5089967;27;45541;-80
2022/10/31 07:17:52;;;;;;;;;27.33;24.00;;;;;;;;5091175;27;45378;-80
2022/10/31 07:20:17;;;;;;;;;26.00;23.67;;;;;;;;5076749;27;45338;-79
2022/10/31 07:22:42;;;;;;;;;28.33;22.00;;;;;;;;5096500;27;45813;-78
2022/10/31 07:25:08;;;;;;;;;25.50;23.00;;;;;;;;5094394;27;45487;-78
2022/10/31 07:27:40;;;;;;;;;25.00;21.00;;;;;;;;5096830;27;45329;-77
2022/10/31 07:30:06;;;;;;;;;22.33;20.33;;;;;;;;5090459;27;45544;-78
2022/10/31 07:32:39;;;;;;;;;22.00;21.33;;;;;;;;5078782;27;45361;-78
2022/10/31 07:35:04;;;;;;;;;28.67;24.67;;;;;;;;5098218;27;45490;-78
2022/10/31 07:37:29;;;;;;;;;23.67;21.33;;;;;;;;5085435;27;45670;-77
2022/10/31 07:39:54;;;;;;;;;19.33;17.00;;;;;;;;5087220;27;45652;-77
2022/10/31 07:42:20;;;;;;;;;27.33;21.67;;;;;;;;5084390;27;45244;-77
2022/10/31 07:44:45;;;;;;;;;20.00;18.33;;;;;;;;5091755;27;45423;-78
2022/10/31 07:47:10;;;;;;;;;23.75;19.75;;;;;;;;5083049;27;46439;-77
2022/10/31 07:49:35;;;;;;;;;23.67;23.67;;;;;;;;5095161;27;45378;-77
2022/10/31 07:52:00;;;;;;;;;24.67;24.00;;;;;;;;5089168;27;45513;-77
2022/10/31 07:54:26;;;;;;;;;23.50;21.25;;;;;;;;5101294;27;45403;-77
2022/10/31 07:56:51;;;;;;;;;23.67;21.00;;;;;;;;5085611;27;45260;-78
2022/10/31 07:59:16;;;;;;;;;23.00;21.00;;;;;;;;5101842;27;45726;-77
2022/10/31 08:01:41;;;;;;;;;22.00;20.00;;;;;;;;5096988;27;45336;-77
2022/10/31 08:04:06;;;;;;;;;22.33;21.33;;;;;;;;5099140;27;45395;-78
2022/10/31 08:06:32;;;;;;;;;25.00;19.00;;;;;;;;5100952;27;45453;-77
2022/10/31 08:08:57;;;;;;;;;24.33;22.33;;;;;;;;5101580;27;45450;-76
2022/10/31 08:11:22;;;;;;;;;24.33;21.33;;;;;;;;5099468;27;45454;-77
2022/10/31 08:13:47;;;;;;;;;28.67;22.33;;;;;;;;5086815;27;45454;-77
2022/10/31 08:16:12;;;;;;;;;23.67;22.33;;;;;;;;5101892;27;46543;-78
2022/10/31 08:18:37;;;;;;;;;23.33;18.00;;;;;;;;5087618;27;45424;-78
2022/10/31 08:21:03;;;;;;;;;27.00;21.33;;;;;;;;5094045;27;45382;-77
2022/10/31 08:23:28;;;;;;;;;22.33;21.00;;;;;;;;5075437;27;45996;-77
2022/10/31 08:25:53;;;;;;;;;20.67;19.33;;;;;;;;5089716;27;46474;-78
2022/10/31 08:28:18;;;;;;;;;24.33;22.00;;;;;;;;5095665;27;45275;-77
2022/10/31 08:30:45;;;;;;;;;23.67;20.67;;;;;;;;5090593;27;44800;-78
2022/10/31 08:33:10;;;;;;;;;19.33;19.00;;;;;;;;5096625;27;45296;-78
2022/10/31 08:35:36;;;;;;;;;22.00;19.00;;;;;;;;5090232;27;46088;-77
2022/10/31 08:38:01;;;;;;;;;17.67;17.33;;;;;;;;5094501;27;45347;-77
2022/10/31 08:40:27;;;;;;;;;26.33;23.00;;;;;;;;5074811;27;45717;-77
2022/10/31 08:42:56;;;;;;;;;23.67;20.33;;;;;;;;5100533;27;45734;-76
2022/10/31 08:45:21;;;;;;;;;21.00;18.00;;;;;;;;5082276;27;46754;-77
2022/10/31 08:47:46;;;;;;;;;21.33;21.33;;;;;;;;5095018;27;45375;-77
2022/10/31 08:50:11;;;;;;;;;26.00;21.00;;;;;;;;5097115;27;45472;-77
2022/10/31 08:52:37;;;;;;;;;23.67;21.67;;;;;;;;5095603;27;45284;-76
2022/10/31 08:55:02;;;;;;;;;26.67;22.67;;;;;;;;5088406;27;45358;-76
2022/10/31 08:57:27;;;;;;;;;22.00;20.00;;;;;;;;5080001;27;45577;-76
2022/10/31 08:59:52;;;;;;;;;23.00;22.00;;;;;;;;5090044;27;45244;-76
2022/10/31 09:02:17;;;;;;;;;25.00;21.67;;;;;;;;5080347;27;45307;-76
2022/10/31 09:04:43;;;;;;;;;23.33;21.33;;;;;;;;5078223;27;46048;-77
2022/10/31 09:07:08;;;;;;;;;26.33;22.00;;;;;;;;5080531;27;45320;-76
2022/10/31 09:09:33;;;;;;;;;24.00;23.33;;;;;;;;5083995;27;45406;-76
2022/10/31 09:11:58;;;;;;;;;21.67;19.00;;;;;;;;5092723;27;45356;-76
2022/10/31 09:14:24;;;;;;;;;30.00;24.00;;;;;;;;5095715;27;45413;-76
2022/10/31 09:16:49;;;;;;;;;26.33;24.67;;;;;;;;5081234;27;45323;-77
2022/10/31 09:19:14;;;;;;;;;23.67;21.00;;;;;;;;5090870;27;45284;-77
2022/10/31 09:21:39;;;;;;;;;31.00;27.00;;;;;;;;5076463;27;47127;-76
2022/10/31 09:24:05;;;;;;;;;23.33;21.33;;;;;;;;5091589;27;46346;-77
2022/10/31 09:26:30;;;;;;;;;27.67;24.33;;;;;;;;5082265;27;45308;-77
2022/10/31 09:28:57;;;;;;;;;31.33;27.67;;;;;;;;5088185;27;45345;-77
2022/10/31 09:31:22;;;;;;;;;30.00;25.67;;;;;;;;5082477;27;45212;-78
2022/10/31 09:33:48;;;;;;;;;27.00;24.33;;;;;;;;5086864;27;45270;-78
2022/10/31 09:36:13;;;;;;;;;27.00;24.00;;;;;;;;5087701;27;45320;-79
2022/10/31 09:38:38;;;;;;;;;22.67;21.33;;;;;;;;5099861;27;45320;-78
2022/10/31 09:41:11;;;;;;;;;20.33;20.33;;;;;;;;5090544;27;45548;-77
2022/10/31 09:43:47;;;;;;;;;26.00;22.00;;;;;;;;5094712;27;45371;-78
2022/10/31 09:46:22;;;;;;;;;26.67;24.67;;;;;;;;5083128;27;45299;-78
2022/10/31 09:49:00;;;;;;;;;27.33;24.33;;;;;;;;5086348;27;45420;-78
2022/10/31 09:51:29;;;;;;;;;27.67;25.67;;;;;;;;5080609;27;45637;-78
2022/10/31 09:54:12;;;;;;;;;25.67;21.33;;;;;;;;5091668;27;46519;-77
2022/10/31 09:56:37;;;;;;;;;28.00;22.33;;;;;;;;5081166;27;45354;-78
2022/10/31 09:59:04;;;;;;;;;33.33;25.67;;;;;;;;5075324;27;45408;-78
2022/10/31 10:01:33;;;;;;;;;28.00;23.00;;;;;;;;5081279;27;44933;-78
2022/10/31 10:04:01;;;;;;;;;26.00;23.00;;;;;;;;5077241;27;48072;-78
2022/10/31 10:06:32;;;;;;;;;24.67;24.00;;;;;;;;5080441;27;45213;-78
2022/10/31 10:08:57;;;;;;;;;26.33;22.67;;;;;;;;5079592;27;45350;-77
2022/10/31 10:11:34;;;;;;;;;21.00;21.00;;;;;;;;5087535;27;45218;-77
2022/10/31 10:14:10;;;;;;;;;21.33;21.33;;;;;;;;5076670;27;46119;-77
2022/10/31 10:16:42;;;;;;;;;24.33;23.33;;;;;;;;5079927;27;45465;-78
2022/10/31 10:19:26;;;;;;;;;24.00;19.67;;;;;;;;5088461;27;45470;-77
2022/10/31 10:21:57;;;;;;;;;19.33;19.33;;;;;;;;5080503;27;45692;-77
2022/10/31 10:24:25;;;;;;;;;20.00;19.67;;;;;;;;5088714;27;47575;-77
2022/10/31 10:26:57;;;;;;;;;22.67;21.67;;;;;;;;5080952;27;45354;-77
2022/10/31 10:29:22;;;;;;;;;25.00;21.33;;;;;;;;5089056;27;45312;-78
2022/10/31 10:31:49;;;;;;;;;22.00;21.67;;;;;;;;5079957;27;45448;-78
2022/10/31 10:34:20;;;;;;;;;24.67;22.33;;;;;;;;5086501;27;45512;-78
2022/10/31 10:36:45;;;;;;;;;26.67;23.33;;;;;;;;5079930;27;45223;-78
2022/10/31 10:39:34;;;;;;;;;28.67;22.00;;;;;;;;5088728;27;45351;-78
2022/10/31 10:47:38;;;;;;;;;20.00;17.67;;;;;;;;5093938;27;45347;-77
2022/10/31 10:50:10;;;;;;;;;22.67;18.33;;;;;;;;5087086;27;45315;-76
2022/10/31 10:52:44;;;;;;;;;16.33;16.33;;;;;;;;5078767;27;45386;-76
2022/10/31 10:55:22;;;;;;;;;21.00;19.00;;;;;;;;5087119;27;45394;-77
2022/10/31 10:57:55;;;;;;;;;18.67;17.67;;;;;;;;5084373;27;45422;-77
2022/10/31 11:00:25;;;;;;;;;16.33;15.00;;;;;;;;5083682;27;45328;-77
2022/10/31 11:02:50;;;;;;;;;25.00;19.67;;;;;;;;5078789;27;45545;-76
2022/10/31 11:05:32;;;;;;;;;17.67;17.67;;;;;;;;5082819;27;46053;-76
2022/10/31 11:07:58;;;;;;;;;16.67;12.33;;;;;;;;5078718;27;45359;-76
2022/10/31 11:10:23;;;;;;;;;20.00;18.33;;;;;;;;5088446;27;45331;-78
2022/10/31 11:13:00;;;;;;;;;17.67;17.67;;;;;;;;5079067;27;46008;-78
2022/10/31 11:15:27;;;;;;;;;20.00;17.00;;;;;;;;5076768;27;46924;-77
2022/10/31 11:17:54;;;;;;;;;23.00;20.67;;;;;;;;5078805;27;45370;-78
2022/10/31 11:20:19;;;;;;;;;18.00;15.67;;;;;;;;5074092;27;45390;-78
2022/10/31 11:22:45;;;;;;;;;19.67;18.33;;;;;;;;5078651;27;45238;-78
2022/10/31 11:25:24;;;;;;;;;23.67;18.00;;;;;;;;5077713;27;45647;-78
2022/10/31 11:27:59;;;;;;;;;20.33;18.67;;;;;;;;5082913;27;45317;-78
2022/10/31 11:30:24;;;;;;;;;22.67;18.33;;;;;;;;5097315;27;45303;-78
2022/10/31 11:32:52;;;;;;;;;21.33;17.33;;;;;;;;5082173;27;45086;-78
2022/10/31 11:35:18;;;;;;;;;20.33;14.67;;;;;;;;5089761;27;45440;-78
2022/10/31 11:37:44;;;;;;;;;23.33;20.33;;;;;;;;5082140;27;45466;-78
2022/10/31 11:40:18;;;;;;;;;20.33;15.00;;;;;;;;5091758;27;45353;-78
2022/10/31 11:42:43;;;;;;;;;16.67;13.33;;;;;;;;5083377;27;45493;-78
2022/10/31 11:45:16;;;;;;;;;20.67;16.00;;;;;;;;5089256;27;47508;-78
2022/10/31 11:47:42;;;;;;;;;15.67;13.33;;;;;;;;5083636;27;45504;-78
2022/10/31 11:50:09;;;;;;;;;18.00;16.00;;;;;;;;5097119;27;45438;-78
2022/10/31 11:52:37;;;;;;;;;19.00;14.33;;;;;;;;5081661;27;45348;-78
2022/10/31 11:55:12;;;;;;;;;18.00;18.00;;;;;;;;5086214;27;46407;-78
2022/10/31 11:57:51;;;;;;;;;17.50;15.50;;;;;;;;5080549;27;45386;-78
2022/10/31 12:00:21;;;;;;;;;20.00;17.00;;;;;;;;5088428;27;45461;-78
2022/10/31 12:02:46;;;;;;;;;19.33;16.00;;;;;;;;5082030;27;45209;-78
2022/10/31 12:05:22;;;;;;;;;19.00;18.00;;;;;;;;5086915;27;45768;-78
2022/10/31 12:07:48;;;;;;;;;22.00;19.00;;;;;;;;5081414;27;45372;-78
2022/10/31 12:10:14;;;;;;;;;16.67;13.00;;;;;;;;5095997;27;45515;-78
2022/10/31 12:12:45;;;;;;;;;15.33;15.33;;;;;;;;5088122;27;45300;-76
2022/10/31 12:15:37;;;;;;;;;17.00;16.00;;;;;;;;5080633;27;47562;-77
2022/10/31 12:18:02;;;;;;;;;15.67;14.00;;;;;;;;5059956;27;45519;-77
2022/10/31 12:20:46;;;;;;;;;16.33;14.33;;;;;;;;5095455;27;45417;-77
2022/10/31 12:23:20;;;;;;;;;18.00;14.33;;;;;;;;5082153;27;45523;-78
2022/10/31 12:25:50;;;;;;;;;14.33;12.67;;;;;;;;5086518;27;45390;-77
2022/10/31 12:28:21;;;;;;;;;16.00;13.67;;;;;;;;5083667;27;45457;-77
2022/10/31 12:30:49;;;;;;;;;14.00;12.67;;;;;;;;5087115;27;45446;-77
2022/10/31 12:33:14;;;;;;;;;13.33;12.00;;;;;;;;5083041;27;45451;-79
2022/10/31 12:35:39;;;;;;;;;12.67;12.67;;;;;;;;5080369;27;46823;-79
2022/10/31 12:38:19;;;;;;;;;13.33;11.00;;;;;;;;5097228;27;45410;-79
2022/10/31 12:41:00;;;;;;;;;13.33;12.00;;;;;;;;5085857;27;45454;-78
2022/10/31 12:43:34;;;;;;;;;14.67;13.00;;;;;;;;5083979;27;45388;-77
2022/10/31 12:46:00;;;;;;;;;16.00;14.00;;;;;;;;5086525;27;45469;-78
2022/10/31 12:48:31;;;;;;;;;12.67;11.00;;;;;;;;5099488;27;45498;-78
2022/10/31 12:50:56;;;;;;;;;15.00;14.00;;;;;;;;5078477;27;45350;-78
2022/10/31 12:53:35;;;;;;;;;17.67;16.00;;;;;;;;5092146;27;45446;-78
2022/10/31 12:56:19;;;;;;;;;13.33;11.67;;;;;;;;5093355;27;45364;-79
2022/10/31 12:58:51;;;;;;;;;9.33;9.33;;;;;;;;5086247;27;45493;-79
2022/10/31 13:01:20;;;;;;;;;17.00;11.00;;;;;;;;5093443;27;45379;-75
2022/10/31 13:03:48;;;;;;;;;9.67;8.67;;;;;;;;5089159;27;45403;-75
2022/10/31 13:06:18;;;;;;;;;13.67;10.00;;;;;;;;5074858;27;47898;-78
2022/10/31 13:08:47;;;;;;;;;18.00;13.33;;;;;;;;5091123;27;45289;-77
2022/10/31 13:11:18;;;;;;;;;12.67;10.33;;;;;;;;5101075;27;45517;-76
2022/10/31 13:13:54;;;;;;;;;13.00;13.00;;;;;;;;5096311;27;45478;-76
2022/10/31 13:16:22;;;;;;;;;16.00;13.00;;;;;;;;5076709;27;48133;-77
2022/10/31 13:18:50;;;;;;;;;13.33;13.00;;;;;;;;5094916;27;45559;-74
2022/10/31 13:21:25;;;;;;;;;16.00;11.00;;;;;;;;5087247;27;45534;-74
2022/10/31 13:23:51;;;;;;;;;11.67;11.00;;;;;;;;5092172;27;45453;-74
2022/10/31 13:26:35;;;;;;;;;13.33;11.00;;;;;;;;5079814;27;47328;-74
2022/10/31 13:29:05;;;;;;;;;17.00;14.00;;;;;;;;5087949;27;45254;-74
2022/10/31 13:31:30;;;;;;;;;13.00;11.33;;;;;;;;5081165;27;45474;-74
2022/10/31 13:33:58;;;;;;;;;9.67;9.33;;;;;;;;5084039;27;45401;-73
2022/10/31 13:36:29;;;;;;;;;14.33;13.00;;;;;;;;5081446;27;46074;-73
2022/10/31 13:39:21;;;;;;;;;13.00;12.33;;;;;;;;5086798;27;45428;-74
2022/10/31 13:41:59;;;;;;;;;14.33;12.33;;;;;;;;5090517;27;45628;-74
2022/10/31 13:44:26;;;;;;;;;10.00;9.33;;;;;;;;5075100;27;45583;-75
2022/10/31 13:46:52;;;;;;;;;13.00;13.00;;;;;;;;5097299;27;45386;-74
2022/10/31 13:49:29;;;;;;;;;14.67;11.00;;;;;;;;5090366;27;45379;-75
2022/10/31 13:52:09;;;;;;;;;12.00;9.67;;;;;;;;5080081;27;45435;-74
2022/10/31 13:54:35;;;;;;;;;13.00;11.00;;;;;;;;5083914;27;45542;-75
2022/10/31 13:57:01;;;;;;;;;14.00;12.00;;;;;;;;5075489;27;48056;-74
2022/10/31 13:59:27;;;;;;;;;15.00;13.33;;;;;;;;5094985;27;45301;-73
2022/10/31 14:01:55;;;;;;;;;16.33;13.00;;;;;;;;5085618;27;45374;-73
2022/10/31 14:04:21;;;;;;;;;9.67;4.00;;;;;;;;5085348;27;45482;-74
2022/10/31 14:07:05;;;;;;;;;17.00;13.67;;;;;;;;5082240;27;45297;-75
2022/10/31 14:09:33;;;;;;;;;16.00;14.00;;;;;;;;5084465;27;45461;-74
2022/10/31 14:12:01;;;;;;;;;13.33;11.33;;;;;;;;5078592;27;45283;-75
2022/10/31 14:14:30;;;;;;;;;14.33;11.33;;;;;;;;5093994;27;45624;-75
2022/10/31 14:16:57;;;;;;;;;12.33;12.33;;;;;;;;5084467;27;45453;-75
2022/10/31 14:19:22;;;;;;;;;16.33;11.00;;;;;;;;5091829;27;45550;-75
2022/10/31 14:21:48;;;;;;;;;19.00;12.67;;;;;;;;5076176;27;45381;-74
2022/10/31 14:24:15;;;;;;;;;20.33;16.33;;;;;;;;5090913;27;45553;-74
2022/10/31 14:26:50;;;;;;;;;16.50;15.00;;;;;;;;5069400;27;46326;-75
2022/10/31 14:29:16;;;;;;;;;14.67;11.00;;;;;;;;5087532;27;45513;-74